Pagrindinis puslapis
METAR-TAF:

METAR-TAF

Oro uostai :

Mesotas, Tailandas

platuma: 16-40N, ilguma: 098-33E, Aukštis: 196 m

Dabartinis oras

Ataskaita buvo paskelbta 23 minutes, ne 05:00 UTC
Vėjas 5 kt iš Vakarų/Šiaurės Vakarų, svyruoja nuo Vakarų ir Šiaurės
Temperatūra 33°C
Drėgmė 53%
Slėgis 1010 hPa
Matomumas 10 km arba daugiau
Išsisklaidę debesys ne aukštis 3000 ft

METAR: VTPM 290500Z 29005KT 260V350 9999 SCT030 33/22 Q1010 NOSIG

Laikas: 12:23 (05:23 UTC)

Prognozė

Ataskaita buvo paskelbta 6 valandos ir 23 minutes, ne 23:00 UTC
Prognozė galioja nuo 29 metu 00 UTC su 29 metu 24 UTC
Vėjas 8 kt iš Vakarų/Pietvakarių
Matomumas 10 km arba daugiau
Išsisklaidę debesys ne aukštis 4000 ft
Laikinai
nuo 29 metu 08 UTC su 29 metu 14 UTC
Vėjas 15 kt iš Vakarų/Pietvakarių su gūsio iki 30 kt
Matomumas: 3000 m
Mažai debesys ne aukštis 2500 ft, Liūtiniai kamuoliniai debesys.
Su prošvaistėmis ne aukštis 3000 ft
perkūnija, lietus

TAF: VTPM 282300Z 2900/2924 25008KT 9999 SCT040 TEMPO 2908/2914 24015G30KT 3000 TSRA FEW025CB BKN030

Orai ataskaitas ir orų prognozės (METAR, TAF).

turimą stotys yra geltonos ir raudonos taškus žemėlapyje.

Perkelti pele per norėdami pamatyti stoties vardą.

Tada spustelėkite, norėdami matyti oro stebėjimo ir prognozės.

Norėdami pakeisti žemėlapį: spustelėkite ant žalios mygtukų su juodo kryžiaus žemyn,; žalią mygtuką su brūkšneliu, jei norite nutolinti; arba žalių rodyklių gretimoms žemėlapius.


METAR-TAF: